Observation data for Plains on 11/10/2019      Previous  Date       Current Mesonet Observations  Soil Data  Daily Summary Page  Observations in Plain Language
KPPS 100600Z 23009KT 09/07 A3012 RMK A01 T00930073  RH  090%=      5-min Rain = 0
KPPS 100605Z 23008KT 09/07 A3012 RMK A01 T00930073  RH  090%=      5-min Rain = 0
KPPS 100610Z 23007KT 09/07 A3012 RMK A01 T00910072  RH  090%=      5-min Rain = 0
KPPS 100615Z 24008KT 09/07 A3011 RMK A01 T00870069  RH  091%=      5-min Rain = 0
KPPS 100620Z 24007KT 08/07 A3011 RMK A01 T00830066  RH  092%=      5-min Rain = 0
KPPS 100625Z 24008KT 08/07 A3011 RMK A01 T00810067  RH  093%=      5-min Rain = 0
KPPS 100630Z 24007KT 08/07 A3011 RMK A01 T00830069  RH  093%=      5-min Rain = 0
KPPS 100635Z 24008KT 09/07 A3011 RMK A01 T00850069  RH  092%=      5-min Rain = 0
KPPS 100640Z 24008KT 09/07 A3011 RMK A01 T00860070  RH  092%=      5-min Rain = 0
KPPS 100645Z 24007KT 09/07 A3011 RMK A01 T00850068  RH  091%=      5-min Rain = 0
KPPS 100650Z 24007KT 08/07 A3011 RMK A01 T00800065  RH  092%=      5-min Rain = 0
KPPS 100655Z 25008KT 08/06 A3011 RMK A01 T00770064  RH  094%=      5-min Rain = 0
KPPS 100700Z 24008KT 08/07 A3011 RMK A01 T00780066  RH  095%=      5-min Rain = 0
KPPS 100705Z 24007KT 08/07 A3011 RMK A01 T00790066  RH  094%=      5-min Rain = 0
KPPS 100710Z 24006KT 08/07 A301 RMK A01 T00780066  RH  094%=      5-min Rain = 0
KPPS 100715Z 24007KT 08/07 A301 RMK A01 T00770065  RH  094%=      5-min Rain = 0
KPPS 100720Z 24007KT 08/07 A301 RMK A01 T00780066  RH  095%=      5-min Rain = 0
KPPS 100725Z 24007KT 08/07 A301 RMK A01 T00790066  RH  094%=      5-min Rain = 0
KPPS 100730Z 24007KT 08/07 A301 RMK A01 T00780066  RH  094%=      5-min Rain = 0
KPPS 100735Z 23007KT 08/07 A301 RMK A01 T00790067  RH  094%=      5-min Rain = 0
KPPS 100740Z 24007KT 08/07 A301 RMK A01 T00800067  RH  094%=      5-min Rain = 0
KPPS 100745Z 24007KT 08/07 A301 RMK A01 T00780065  RH  094%=      5-min Rain = 0
KPPS 100750Z 24007KT 08/07 A301 RMK A01 T00780066  RH  094%=      5-min Rain = 0
KPPS 100755Z 24007KT 07/06 A301 RMK A01 T00740062  RH  094%=      5-min Rain = 0
KPPS 100800Z 24007KT 07/06 A3009 RMK A01 T00700059  RH  095%=      5-min Rain = 0
KPPS 100805Z 24008KT 07/06 A3009 RMK A01 T00700061  RH  097%=      5-min Rain = 0
KPPS 100810Z 24008KT 07/06 A3009 RMK A01 T00690060  RH  096%=      5-min Rain = 0
KPPS 100815Z 24008KT 07/06 A3009 RMK A01 T00680060  RH  097%=      5-min Rain = 0
KPPS 100820Z 24008KT 07/06 A3009 RMK A01 T00690062  RH  097%=      5-min Rain = 0
KPPS 100825Z 24007KT 07/06 A3009 RMK A01 T00710063  RH  097%=      5-min Rain = 0
KPPS 100830Z 24007KT 07/06 A3008 RMK A01 T00720064  RH  097%=      5-min Rain = 0
KPPS 100835Z 23007KT 08/07 A3008 RMK A01 T00750067  RH  097%=      5-min Rain = 0
KPPS 100840Z 23007KT 08/07 A3008 RMK A01 T00770068  RH  096%=      5-min Rain = 0
KPPS 100845Z 22006KT 08/07 A3008 RMK A01 T00780067  RH  095%=      5-min Rain = 0
KPPS 100850Z 22007KT 08/07 A3008 RMK A01 T00780066  RH  095%=      5-min Rain = 0
KPPS 100855Z 22007KT 08/07 A3008 RMK A01 T00780067  RH  095%=      5-min Rain = 0
KPPS 100900Z 22007KT 08/07 A3008 RMK A01 T00790067  RH  095%=      5-min Rain = 0
KPPS 100905Z 23007KT 08/07 A3007 RMK A01 T00780067  RH  095%=      5-min Rain = 0
KPPS 100910Z 22007KT 08/07 A3007 RMK A01 T00790067  RH  095%=      5-min Rain = 0
KPPS 100915Z 23007KT 08/07 A3007 RMK A01 T00780066  RH  095%=      5-min Rain = 0
KPPS 100920Z 23007KT 08/07 A3007 RMK A01 T00760066  RH  096%=      5-min Rain = 0
KPPS 100925Z 23007KT 08/07 A3007 RMK A01 T00770068  RH  096%=      5-min Rain = 0
KPPS 100930Z 23007KT 08/07 A3007 RMK A01 T00790069  RH  096%=      5-min Rain = 0
KPPS 100935Z 23008KT 08/07 A3007 RMK A01 T00800070  RH  096%=      5-min Rain = 0
KPPS 100940Z 23008KT 08/07 A3007 RMK A01 T00820071  RH  095%=      5-min Rain = 0
KPPS 100945Z 23008KT 08/07 A3007 RMK A01 T00820071  RH  095%=      5-min Rain = 0
KPPS 100950Z 23008KT 08/07 A3007 RMK A01 T00820072  RH  095%=      5-min Rain = 0
KPPS 100955Z 23008KT 08/07 A3007 RMK A01 T00830072  RH  095%=      5-min Rain = 0
KPPS 101000Z 23008KT 08/07 A3007 RMK A01 T00830072  RH  095%=      5-min Rain = 0
KPPS 101005Z 23008KT 08/07 A3006 RMK A01 T00830072  RH  095%=      5-min Rain = 0
KPPS 101010Z 23008KT 08/07 A3006 RMK A01 T00830072  RH  095%=      5-min Rain = 0
KPPS 101015Z 23008KT 08/07 A3006 RMK A01 T00830073  RH  095%=      5-min Rain = 0
KPPS 101020Z 23008KT 08/07 A3006 RMK A01 T00840074  RH  096%=      5-min Rain = 0
KPPS 101025Z 22007KT 09/07 A3006 RMK A01 T00850074  RH  095%=      5-min Rain = 0
KPPS 101030Z 23007KT 08/07 A3006 RMK A01 T00840074  RH  096%=      5-min Rain = 0
KPPS 101035Z 23007KT 08/07 A3006 RMK A01 T00840074  RH  096%=      5-min Rain = 0
KPPS 101040Z 23006KT 08/07 A3006 RMK A01 T00840073  RH  096%=      5-min Rain = 0
KPPS 101045Z 23006KT 08/07 A3006 RMK A01 T00810071  RH  096%=      5-min Rain = 0
KPPS 101050Z 23006KT 08/07 A3006 RMK A01 T00780069  RH  096%=      5-min Rain = 0
KPPS 101055Z 24007KT 08/07 A3006 RMK A01 T00760068  RH  097%=      5-min Rain = 0
KPPS 101100Z 24007KT 07/07 A3006 RMK A01 T00730066  RH  097%=      5-min Rain = 0
KPPS 101105Z 24007KT 07/07 A3005 RMK A01 T00740067  RH  098%=      5-min Rain = 0
KPPS 101110Z 24007KT 08/07 A3005 RMK A01 T00760071  RH  099%=      5-min Rain = 0
KPPS 101115Z 24008KT 08/07 A3005 RMK A01 T00780072  RH  099%=      5-min Rain = 0
KPPS 101120Z 24007KT 08/07 A3005 RMK A01 T00790072  RH  098%=      5-min Rain = 0
KPPS 101125Z 24007KT 08/07 A3005 RMK A01 T00790072  RH  098%=      5-min Rain = 0
KPPS 101130Z 24007KT 08/07 A3005 RMK A01 T00780071  RH  098%=      5-min Rain = 0
KPPS 101135Z 24007KT 08/07 A3005 RMK A01 T00780071  RH  098%=      5-min Rain = 0
KPPS 101140Z 25007KT 08/07 A3005 RMK A01 T00760069  RH  098%=      5-min Rain = 0
KPPS 101145Z 24007KT 08/07 A3005 RMK A01 T00760070  RH  098%=      5-min Rain = 0
KPPS 101150Z 25007KT 08/07 A3005 RMK A01 T00760070  RH  098%=      5-min Rain = 0
KPPS 101155Z 25007KT 07/07 A3005 RMK A01 T00730066  RH  098%=      5-min Rain = 0
KPPS 101200Z 25007KT 07/07 A3005 RMK A01 T00710065  RH  098%=      5-min Rain = 0
KPPS 101205Z 25006KT 07/06 A3005 RMK A01 T00690064  RH  099%=      5-min Rain = 0
KPPS 101210Z 25006KT 07/06 A3005 RMK A01 T00660061  RH  099%=      5-min Rain = 0
KPPS 101215Z 25007KT 07/06 A3005 RMK A01 T00660061  RH  099%=      5-min Rain = 0
KPPS 101220Z 25007KT 07/06 A3005 RMK A01 T00650060  RH  099%=      5-min Rain = 0
KPPS 101225Z 25007KT 06/06 A3005 RMK A01 T00640060  RH  100%=      5-min Rain = 0
KPPS 101230Z 25007KT 06/06 A3005 RMK A01 T00630059  RH  100%=      5-min Rain = 0
KPPS 101235Z 25007KT 06/06 A3005 RMK A01 T00610057  RH  100%=      5-min Rain = 0
KPPS 101240Z 25007KT 06/06 A3005 RMK A01 T00600056  RH  100%=      5-min Rain = 0
KPPS 101245Z 26007KT 06/06 A3005 RMK A01 T00580055  RH  100%=      5-min Rain = 0
KPPS 101250Z 26007KT 06/05 A3005 RMK A01 T00570053  RH  100%=      5-min Rain = 0
KPPS 101255Z 26007KT 06/05 A3005 RMK A01 T00550051  RH  100%=      5-min Rain = 0
KPPS 101300Z 26007KT 05/05 A3005 RMK A01 T00540051  RH  100%=      5-min Rain = 0
KPPS 101305Z 26006KT 05/05 A3005 RMK A01 T00520049  RH  100%=      5-min Rain = 0
KPPS 101310Z 26007KT 05/05 A3005 RMK A01 T00530050  RH  100%=      5-min Rain = 0
KPPS 101315Z 26007KT 05/05 A3005 RMK A01 T00540051  RH  100%=      5-min Rain = 0
KPPS 101320Z 26007KT 05/05 A3005 RMK A01 T00540051  RH  100%=      5-min Rain = 0
KPPS 101325Z 25007KT 05/05 A3005 RMK A01 T00540051  RH  100%=      5-min Rain = 0
KPPS 101330Z 25007KT 06/05 A3005 RMK A01 T00550052  RH  100%=      5-min Rain = 0
KPPS 101335Z 24006KT 06/05 A3005 RMK A01 T00560053  RH  100%=      5-min Rain = 0
KPPS 101340Z 23007KT 06/06 A3005 RMK A01 T00580055  RH  100%=      5-min Rain = 0
KPPS 101345Z 23007KT 06/06 A3005 RMK A01 T00600056  RH  100%=      5-min Rain = 0
KPPS 101350Z 23007KT 06/06 A3005 RMK A01 T00610058  RH  100%=      5-min Rain = 0
KPPS 101355Z 23006KT 06/06 A3005 RMK A01 T00640061  RH  100%=      5-min Rain = 0
KPPS 101400Z 23006KT 07/07 A3005 RMK A01 T00690065  RH  100%=      5-min Rain = 0
KPPS 101405Z 23006KT 07/07 A3005 RMK A01 T00730069  RH  100%=      5-min Rain = 0
KPPS 101410Z 24006KT 08/07 A3005 RMK A01 T00760072  RH  100%=      5-min Rain = 0
KPPS 101415Z 24007KT 08/08 A3005 RMK A01 T00800076  RH  100%=      5-min Rain = 0
KPPS 101420Z 23006KT 08/08 A3005 RMK A01 T00840079  RH  099%=      5-min Rain = 0
KPPS 101425Z 23006KT 09/08 A3005 RMK A01 T00860079  RH  098%=      5-min Rain = 0
KPPS 101430Z 23005KT 09/08 A3005 RMK A01 T00880080  RH  098%=      5-min Rain = 0
KPPS 101435Z 22006KT 09/08 A3005 RMK A01 T00900081  RH  097%=      5-min Rain = 0
KPPS 101440Z 22006KT 09/08 A3005 RMK A01 T00930084  RH  097%=      5-min Rain = 0
KPPS 101445Z 22007KT 10/09 A3006 RMK A01 T00970087  RH  096%=      5-min Rain = 0
KPPS 101450Z 22006KT 10/09 A3006 RMK A01 T01020091  RH  095%=      5-min Rain = 0
KPPS 101455Z 22005KT 11/09 A3006 RMK A01 T01070094  RH  095%=      5-min Rain = 0
KPPS 101500Z 22007KT 11/10 A3005 RMK A01 T01110097  RH  094%=      5-min Rain = 0
KPPS 101505Z 23008KT 12/10 A3005 RMK A01 T01150098  RH  092%=      5-min Rain = 0
KPPS 101510Z 24009KT 12/10 A3005 RMK A01 T01180099  RH  091%=      5-min Rain = 0
KPPS 101515Z 24010KT 12/10 A3005 RMK A01 T01200100  RH  090%=      5-min Rain = 0
KPPS 101520Z 23009KT 12/10 A3005 RMK A01 T01230102  RH  090%=      5-min Rain = 0
KPPS 101525Z 23009KT 13/10 A3005 RMK A01 T01270104  RH  089%=      5-min Rain = 0
KPPS 101530Z 23009KT 13/10 A3006 RMK A01 T01310103  RH  086%=      5-min Rain = 0
KPPS 101535Z 23007KT 14/11 A3005 RMK A01 T01350106  RH  086%=      5-min Rain = 0
KPPS 101540Z 23009KT 14/11 A3005 RMK A01 T01380106  RH  084%=      5-min Rain = 0
KPPS 101545Z 22009KT 14/10 A3005 RMK A01 T01390104  RH  082%=      5-min Rain = 0
KPPS 101550Z 22008KT 14/11 A3005 RMK A01 T01400105  RH  082%=      5-min Rain = 0
KPPS 101555Z 22008KT 14/11 A3005 RMK A01 T01430106  RH  081%=      5-min Rain = 0
KPPS 101600Z 23008KT 15/11 A3005 RMK A01 T01480107  RH  079%=      5-min Rain = 0
KPPS 101605Z 23008KT 15/11 A3005 RMK A01 T01500106  RH  077%=      5-min Rain = 0
KPPS 101610Z 23008KT 15/11 A3005 RMK A01 T01520106  RH  077%=      5-min Rain = 0
KPPS 101615Z 22008KT 16/11 A3005 RMK A01 T01560107  RH  075%=      5-min Rain = 0
KPPS 101620Z 23010KT 16/11 A3005 RMK A01 T01600106  RH  073%=      5-min Rain = 0
KPPS 101625Z 23010KT 16/11 A3004 RMK A01 T01610106  RH  072%=      5-min Rain = 0
KPPS 101630Z 23009KT 16/11 A3004 RMK A01 T01630107  RH  072%=      5-min Rain = 0
KPPS 101635Z 23010KT 17/11 A3004 RMK A01 T01660108  RH  071%=      5-min Rain = 0
KPPS 101640Z 24011KT 17/11 A3004 RMK A01 T01680107  RH  070%=      5-min Rain = 0
KPPS 101645Z 24011KT 17/11 A3004 RMK A01 T01690108  RH  070%=      5-min Rain = 0
KPPS 101650Z 24011KT 17/11 A3004 RMK A01 T01710109  RH  069%=      5-min Rain = 0
KPPS 101655Z 24009KT 17/11 A3004 RMK A01 T01720112  RH  070%=      5-min Rain = 0
KPPS 101700Z 23009KT 18/11 A3004 RMK A01 T01750112  RH  069%=      5-min Rain = 0
KPPS 101705Z 23008KT 18/12 A3003 RMK A01 T01800115  RH  068%=      5-min Rain = 0
KPPS 101710Z 24008KT 18/11 A3003 RMK A01 T01800112  RH  067%=      5-min Rain = 0
KPPS 101715Z 23008KT 19/12 A3003 RMK A01 T01860115  RH  066%=      5-min Rain = 0
KPPS 101720Z 24009KT 19/11 A3003 RMK A01 T01940114  RH  062%=      5-min Rain = 0
KPPS 101725Z 24011KT 20/11 A3002 RMK A01 T01990110  RH  058%=      5-min Rain = 0
KPPS 101730Z 24011G16KT 20/11 A3002 RMK A01 T02020108  RH  057%=      5-min Rain = 0
KPPS 101735Z 24011KT 21/11 A3002 RMK A01 T02060110  RH  056%=      5-min Rain = 0
KPPS 101740Z 23009KT 21/11 A3002 RMK A01 T02100111  RH  055%=      5-min Rain = 0
KPPS 101745Z 24011KT 21/11 A3002 RMK A01 T02140112  RH  054%=      5-min Rain = 0
KPPS 101750Z 25010KT 22/11 A3001 RMK A01 T02190110  RH  052%=      5-min Rain = 0
KPPS 101755Z 24011KT 22/11 A3001 RMK A01 T02230108  RH  050%=      5-min Rain = 0
KPPS 101800Z 24011G16KT 23/11 A3001 RMK A01 T02250105  RH  048%=      5-min Rain = 0
KPPS 101805Z 24012KT 22/10 A3001 RMK A01 T02240101  RH  047%=      5-min Rain = 0
KPPS 101810Z 24013KT 23/10 A30 RMK A01 T02250100  RH  046%=      5-min Rain = 0
KPPS 101815Z 24013KT 23/10 A30 RMK A01 T02250099  RH  046%=      5-min Rain = 0
KPPS 101820Z 25012G17KT 23/10 A2999 RMK A01 T02300100  RH  045%=      5-min Rain = 0
KPPS 101825Z 26014KT 23/10 A2999 RMK A01 T02310097  RH  044%=      5-min Rain = 0
KPPS 101830Z 25013KT 23/10 A2999 RMK A01 T02330097  RH  044%=      5-min Rain = 0
KPPS 101835Z 25012G17KT 23/10 A2998 RMK A01 T02340096  RH  043%=      5-min Rain = 0
KPPS 101840Z 25011KT 24/10 A2998 RMK A01 T02350096  RH  043%=      5-min Rain = 0
KPPS 101845Z 25012G17KT 24/09 A2997 RMK A01 T02360094  RH  042%=      5-min Rain = 0
KPPS 101850Z 26012G17KT 24/10 A2997 RMK A01 T02400095  RH  041%=      5-min Rain = 0
KPPS 101855Z 26011G16KT 24/10 A2997 RMK A01 T02420095  RH  041%=      5-min Rain = 0
KPPS 101900Z 26013KT 24/09 A2996 RMK A01 T02440094  RH  040%=      5-min Rain = 0
KPPS 101905Z 26015G20KT 24/09 A2996 RMK A01 T02440092  RH  039%=      5-min Rain = 0
KPPS 101910Z 25014KT 24/09 A2996 RMK A01 T02430090  RH  039%=      5-min Rain = 0
KPPS 101915Z 26012G18KT 24/09 A2995 RMK A01 T02440093  RH  039%=      5-min Rain = 0
KPPS 101920Z 26013KT 25/09 A2995 RMK A01 T02450092  RH  039%=      5-min Rain = 0
KPPS 101925Z 26013KT 25/09 A2995 RMK A01 T02460091  RH  039%=      5-min Rain = 0
KPPS 101930Z 27013G19KT 25/09 A2995 RMK A01 T02470089  RH  038%=      5-min Rain = 0
KPPS 101935Z 25014KT 25/09 A2995 RMK A01 T02460089  RH  038%=      5-min Rain = 0
KPPS 101940Z 26014KT 25/09 A2994 RMK A01 T02450090  RH  039%=      5-min Rain = 0
KPPS 101945Z 25015G20KT 25/09 A2994 RMK A01 T02480090  RH  038%=      5-min Rain = 0
KPPS 101950Z 27014G19KT 25/09 A2994 RMK A01 T02490089  RH  037%=      5-min Rain = 0
KPPS 101955Z 25015KT 25/09 A2994 RMK A01 T02480089  RH  037%=      5-min Rain = 0
KPPS 102000Z 26013G18KT 25/09 A2994 RMK A01 T02500087  RH  037%=      5-min Rain = 0
KPPS 102005Z 27013KT 25/08 A2993 RMK A01 T02500083  RH  035%=      5-min Rain = 0
KPPS 102010Z 26013KT 25/08 A2993 RMK A01 T02500082  RH  035%=      5-min Rain = 0
KPPS 102015Z 26013G20KT 25/08 A2993 RMK A01 T02490081  RH  035%=      5-min Rain = 0
KPPS 102020Z 26012KT 25/08 A2992 RMK A01 T02510082  RH  035%=      5-min Rain = 0
KPPS 102025Z 26013G18KT 25/08 A2992 RMK A01 T02510081  RH  035%=      5-min Rain = 0
KPPS 102030Z 25013G18KT 25/08 A2992 RMK A01 T02500082  RH  035%=      5-min Rain = 0
KPPS 102035Z 26012KT 25/08 A2992 RMK A01 T02500082  RH  035%=      5-min Rain = 0
KPPS 102040Z 25014G19KT 25/08 A2992 RMK A01 T02530080  RH  034%=      5-min Rain = 0
KPPS 102045Z 26014KT 25/08 A2992 RMK A01 T02500077  RH  034%=      5-min Rain = 0
KPPS 102050Z 26012KT 25/08 A2992 RMK A01 T02510079  RH  034%=      5-min Rain = 0
KPPS 102055Z 26012G17KT 26/08 A2992 RMK A01 T02550080  RH  034%=      5-min Rain = 0
KPPS 102100Z 26016G22KT 25/08 A2991 RMK A01 T02540079  RH  034%=      5-min Rain = 0
KPPS 102105Z 27014G19KT 25/08 A2991 RMK A01 T02510078  RH  034%=      5-min Rain = 0
KPPS 102110Z 27013KT 25/08 A2991 RMK A01 T02510081  RH  035%=      5-min Rain = 0
KPPS 102115Z 26014G19KT 25/08 A2992 RMK A01 T02490080  RH  035%=      5-min Rain = 0
KPPS 102120Z 27013KT 25/08 A2992 RMK A01 T02490081  RH  035%=      5-min Rain = 0
KPPS 102125Z 27012G17KT 25/08 A2992 RMK A01 T02470079  RH  035%=      5-min Rain = 0
KPPS 102130Z 26012KT 25/08 A2991 RMK A01 T02490083  RH  036%=      5-min Rain = 0
KPPS 102135Z 27011KT 25/08 A2991 RMK A01 T02470079  RH  035%=      5-min Rain = 0
KPPS 102140Z 25012KT 25/08 A2991 RMK A01 T02460081  RH  036%=      5-min Rain = 0
KPPS 102145Z 26013G19KT 24/08 A2991 RMK A01 T02440082  RH  036%=      5-min Rain = 0
KPPS 102150Z 26012G17KT 24/08 A2991 RMK A01 T02420079  RH  036%=      5-min Rain = 0
KPPS 102155Z 27010G15KT 24/08 A2991 RMK A01 T02420081  RH  037%=      5-min Rain = 0
KPPS 102200Z 26011KT 24/08 A2991 RMK A01 T02410081  RH  037%=      5-min Rain = 0
KPPS 102205Z 26013KT 24/08 A2991 RMK A01 T02400082  RH  037%=      5-min Rain = 0
KPPS 102210Z 26010KT 24/08 A2991 RMK A01 T02390082  RH  038%=      5-min Rain = 0
KPPS 102215Z 26010KT 24/08 A2991 RMK A01 T02400080  RH  037%=      5-min Rain = 0
KPPS 102220Z 26011KT 24/08 A2991 RMK A01 T02430081  RH  036%=      5-min Rain = 0
KPPS 102225Z 25012KT 24/08 A2991 RMK A01 T02430079  RH  036%=      5-min Rain = 0
KPPS 102230Z 25012KT 24/08 A2991 RMK A01 T02410079  RH  036%=      5-min Rain = 0
KPPS 102235Z 25014KT 24/08 A2991 RMK A01 T02380078  RH  037%=      5-min Rain = 0
KPPS 102240Z 25013KT 24/08 A2991 RMK A01 T02370081  RH  038%=      5-min Rain = 0
KPPS 102245Z 25012KT 24/08 A2991 RMK A01 T02350082  RH  039%=      5-min Rain = 0
KPPS 102250Z 26010KT 23/08 A2991 RMK A01 T02330083  RH  039%=      5-min Rain = 0
KPPS 102255Z 26009KT 23/09 A2991 RMK A01 T02290086  RH  041%=      5-min Rain = 0
KPPS 102300Z 27008KT 23/09 A2991 RMK A01 T02260085  RH  042%=      5-min Rain = 0
KPPS 102305Z 27008KT 22/08 A2991 RMK A01 T02230083  RH  042%=      5-min Rain = 0
KPPS 102310Z 26009KT 22/08 A2991 RMK A01 T02210083  RH  042%=      5-min Rain = 0
KPPS 102315Z 25008KT 22/08 A2991 RMK A01 T02180084  RH  044%=      5-min Rain = 0
KPPS 102320Z 24008KT 22/08 A2991 RMK A01 T02150084  RH  044%=      5-min Rain = 0
KPPS 102325Z 23008KT 21/08 A2991 RMK A01 T02130084  RH  045%=      5-min Rain = 0
KPPS 102330Z 21007KT 21/09 A2991 RMK A01 T02100087  RH  047%=      5-min Rain = 0
KPPS 102335Z 22008KT 21/09 A2991 RMK A01 T02070092  RH  049%=      5-min Rain = 0
KPPS 102340Z 23009KT 21/10 A2991 RMK A01 T02070095  RH  050%=      5-min Rain = 0
KPPS 102345Z 23009KT 21/10 A2991 RMK A01 T02050099  RH  052%=      5-min Rain = 0
KPPS 102350Z 23009KT 20/11 A2991 RMK A01 T02030105  RH  055%=      5-min Rain = 0
KPPS 102355Z 23008KT 20/11 A2991 RMK A01 T02000108  RH  057%=      5-min Rain = 0
KPPS 110000Z 23007KT 20/11 A2991 RMK A01 T01970109  RH  059%=      5-min Rain = 0
KPPS 110005Z 22007KT 19/11 A2991 RMK A01 T01920109  RH  061%=      5-min Rain = 0
KPPS 110010Z 23008KT 19/11 A2991 RMK A01 T01890109  RH  062%=      5-min Rain = 0
KPPS 110015Z 24008KT 18/11 A2991 RMK A01 T01840110  RH  064%=      5-min Rain = 0
KPPS 110020Z 24007KT 18/11 A2991 RMK A01 T01800111  RH  066%=      5-min Rain = 0
KPPS 110025Z 24007KT 18/11 A2991 RMK A01 T01780112  RH  067%=      5-min Rain = 0
KPPS 110030Z 24006KT 18/11 A2991 RMK A01 T01760112  RH  068%=      5-min Rain = 0
KPPS 110035Z 24006KT 17/11 A2991 RMK A01 T01720111  RH  070%=      5-min Rain = 0
KPPS 110040Z 25006KT 17/11 A2991 RMK A01 T01690111  RH  071%=      5-min Rain = 0
KPPS 110045Z 25006KT 17/11 A2991 RMK A01 T01670111  RH  072%=      5-min Rain = 0
KPPS 110050Z 25007KT 17/11 A2991 RMK A01 T01670111  RH  072%=      5-min Rain = 0
KPPS 110055Z 24008KT 17/11 A2991 RMK A01 T01690111  RH  071%=      5-min Rain = 0
KPPS 110100Z 24009KT 17/11 A2991 RMK A01 T01740110  RH  068%=      5-min Rain = 0
KPPS 110105Z 24009KT 18/11 A2991 RMK A01 T01780109  RH  066%=      5-min Rain = 0
KPPS 110110Z 25008KT 18/11 A2991 RMK A01 T01770107  RH  066%=      5-min Rain = 0
KPPS 110115Z 25008KT 18/11 A2991 RMK A01 T01770105  RH  065%=      5-min Rain = 0
KPPS 110120Z 25008KT 18/10 A2991 RMK A01 T01750103  RH  065%=      5-min Rain = 0
KPPS 110125Z 25007KT 17/10 A2991 RMK A01 T01730104  RH  066%=      5-min Rain = 0
KPPS 110130Z 24008KT 17/11 A2991 RMK A01 T01720105  RH  067%=      5-min Rain = 0
KPPS 110135Z 24009KT 17/11 A2991 RMK A01 T01730106  RH  067%=      5-min Rain = 0
KPPS 110140Z 23009KT 17/11 A2991 RMK A01 T01710106  RH  068%=      5-min Rain = 0
KPPS 110145Z 23009KT 17/11 A2991 RMK A01 T01690106  RH  069%=      5-min Rain = 0
KPPS 110150Z 23009KT 17/11 A2991 RMK A01 T01670107  RH  070%=      5-min Rain = 0
KPPS 110155Z 23009KT 17/11 A2991 RMK A01 T01650107  RH  071%=      5-min Rain = 0
KPPS 110200Z 23008KT 17/11 A2991 RMK A01 T01660107  RH  071%=      5-min Rain = 0
KPPS 110205Z 23008KT 17/11 A2991 RMK A01 T01670106  RH  070%=      5-min Rain = 0
KPPS 110210Z 23008KT 17/10 A2991 RMK A01 T01680104  RH  068%=      5-min Rain = 0
KPPS 110215Z 23008KT 17/10 A2991 RMK A01 T01700103  RH  067%=      5-min Rain = 0
KPPS 110220Z 24008KT 17/10 A2991 RMK A01 T01700102  RH  066%=      5-min Rain = 0
KPPS 110225Z 24009KT 17/10 A2991 RMK A01 T01700101  RH  066%=      5-min Rain = 0
KPPS 110230Z 24010KT 17/10 A2991 RMK A01 T01730099  RH  064%=      5-min Rain = 0
KPPS 110235Z 23010KT 17/10 A2991 RMK A01 T01720100  RH  064%=      5-min Rain = 0
KPPS 110240Z 23010KT 17/10 A2991 RMK A01 T01710099  RH  065%=      5-min Rain = 0
KPPS 110245Z 23009KT 17/10 A2991 RMK A01 T01710098  RH  064%=      5-min Rain = 0
KPPS 110250Z 23009KT 17/10 A2991 RMK A01 T01700097  RH  064%=      5-min Rain = 0
KPPS 110255Z 23008KT 17/10 A2991 RMK A01 T01690097  RH  065%=      5-min Rain = 0
KPPS 110300Z 24007KT 17/10 A2991 RMK A01 T01650098  RH  067%=      5-min Rain = 0
KPPS 110305Z 24007KT 16/10 A2991 RMK A01 T01620099  RH  068%=      5-min Rain = 0
KPPS 110310Z 25007KT 16/10 A2991 RMK A01 T01560099  RH  071%=      5-min Rain = 0
KPPS 110315Z 25007KT 15/10 A2992 RMK A01 T01510099  RH  074%=      5-min Rain = 0
KPPS 110320Z 24008KT 15/10 A2991 RMK A01 T01450099  RH  076%=      5-min Rain = 0
KPPS 110325Z 24008KT 14/10 A2992 RMK A01 T01420099  RH  078%=      5-min Rain = 0
KPPS 110330Z 25008KT 14/10 A2992 RMK A01 T01380098  RH  079%=      5-min Rain = 0
KPPS 110335Z 25008KT 14/10 A2992 RMK A01 T01370098  RH  080%=      5-min Rain = 0
KPPS 110340Z 25007KT 14/10 A2992 RMK A01 T01350098  RH  081%=      5-min Rain = 0
KPPS 110345Z 26006KT 13/10 A2992 RMK A01 T01320096  RH  081%=      5-min Rain = 0
KPPS 110350Z 26006KT 13/10 A2992 RMK A01 T01300095  RH  082%=      5-min Rain = 0
KPPS 110355Z 26006KT 13/09 A2992 RMK A01 T01300094  RH  081%=      5-min Rain = 0
KPPS 110400Z 26005KT 13/09 A2992 RMK A01 T01300094  RH  081%=      5-min Rain = 0
KPPS 110405Z 26006KT 13/09 A2992 RMK A01 T01290093  RH  081%=      5-min Rain = 0
KPPS 110410Z 26007KT 13/09 A2992 RMK A01 T01290092  RH  080%=      5-min Rain = 0
KPPS 110415Z 26007KT 13/09 A2992 RMK A01 T01260090  RH  081%=      5-min Rain = 0
KPPS 110420Z 26008KT 12/09 A2992 RMK A01 T01240090  RH  082%=      5-min Rain = 0
KPPS 110425Z 26007KT 12/09 A2992 RMK A01 T01240089  RH  082%=      5-min Rain = 0
KPPS 110430Z 26008KT 12/09 A2992 RMK A01 T01220089  RH  083%=      5-min Rain = 0
KPPS 110435Z 26009KT 12/09 A2991 RMK A01 T01220090  RH  083%=      5-min Rain = 0
KPPS 110440Z 26009KT 13/09 A2992 RMK A01 T01250092  RH  083%=      5-min Rain = 0
KPPS 110445Z 26010KT 13/09 A2992 RMK A01 T01270093  RH  082%=      5-min Rain = 0
KPPS 110450Z 26009KT 13/09 A2992 RMK A01 T01280092  RH  081%=      5-min Rain = 0
KPPS 110455Z 26009KT 13/09 A2992 RMK A01 T01270092  RH  081%=      5-min Rain = 0
KPPS 110500Z 27008KT 13/09 A2992 RMK A01 T01270092  RH  081%=      5-min Rain = 0
KPPS 110505Z 26009KT 13/09 A2992 RMK A01 T01270091  RH  081%=      5-min Rain = 0
KPPS 110510Z 26009KT 13/09 A2991 RMK A01 T01280091  RH  080%=      5-min Rain = 0
KPPS 110515Z 26009KT 14/09 A2991 RMK A01 T01350090  RH  076%=      5-min Rain = 0
KPPS 110520Z 26009KT 14/09 A2991 RMK A01 T01400089  RH  073%=      5-min Rain = 0
KPPS 110525Z 26008KT 14/09 A2991 RMK A01 T01390089  RH  074%=      5-min Rain = 0
KPPS 110530Z 26006KT 14/09 A2991 RMK A01 T01350089  RH  076%=      5-min Rain = 0
KPPS 110535Z 27005KT 13/09 A2991 RMK A01 T01310088  RH  077%=      5-min Rain = 0
KPPS 110540Z 26006KT 13/09 A2991 RMK A01 T01290088  RH  078%=      5-min Rain = 0
KPPS 110545Z 26007KT 13/09 A2991 RMK A01 T01260087  RH  080%=      5-min Rain = 0
KPPS 110550Z 26007KT 13/09 A2991 RMK A01 T01250087  RH  080%=      5-min Rain = 0
KPPS 110555Z 26008KT 13/09 A2991 RMK A01 T01250087  RH  080%=      5-min Rain = 0

Page generated in 0.0096 seconds.